sensor_id;sensor_type;location;lat;lon;timestamp;P1;durP1;ratioP1;P2;durP2;ratioP2
46835;SDS011;32573;51.290;6.926;2023-10-13T00:01:34;5.88;;;2.60;;
46835;SDS011;32573;51.290;6.926;2023-10-13T00:04:06;5.30;;;2.72;;
46835;SDS011;32573;51.290;6.926;2023-10-13T00:06:36;4.75;;;2.70;;
46835;SDS011;32573;51.290;6.926;2023-10-13T00:09:05;5.60;;;2.63;;
46835;SDS011;32573;51.290;6.926;2023-10-13T00:11:35;5.32;;;2.60;;
46835;SDS011;32573;51.290;6.926;2023-10-13T00:14:04;5.00;;;2.45;;
46835;SDS011;32573;51.290;6.926;2023-10-13T00:16:34;5.43;;;2.50;;
46835;SDS011;32573;51.290;6.926;2023-10-13T00:19:07;6.15;;;2.72;;
46835;SDS011;32573;51.290;6.926;2023-10-13T00:24:09;4.45;;;2.20;;
46835;SDS011;32573;51.290;6.926;2023-10-13T00:26:41;4.75;;;2.50;;
46835;SDS011;32573;51.290;6.926;2023-10-13T00:29:10;4.85;;;2.50;;
46835;SDS011;32573;51.290;6.926;2023-10-13T00:31:43;5.07;;;2.45;;
46835;SDS011;32573;51.290;6.926;2023-10-13T00:34:20;5.43;;;2.40;;
46835;SDS011;32573;51.290;6.926;2023-10-13T00:36:53;4.63;;;2.50;;
46835;SDS011;32573;51.290;6.926;2023-10-13T00:39:36;4.43;;;2.08;;
46835;SDS011;32573;51.290;6.926;2023-10-13T00:42:07;4.75;;;2.20;;
46835;SDS011;32573;51.290;6.926;2023-10-13T00:44:45;5.00;;;2.40;;
46835;SDS011;32573;51.290;6.926;2023-10-13T00:47:16;4.88;;;2.45;;
46835;SDS011;32573;51.290;6.926;2023-10-13T00:50:06;4.30;;;2.28;;
46835;SDS011;32573;51.290;6.926;2023-10-13T00:52:38;4.88;;;2.20;;
46835;SDS011;32573;51.290;6.926;2023-10-13T00:55:10;5.40;;;2.40;;
46835;SDS011;32573;51.290;6.926;2023-10-13T00:57:39;5.05;;;2.08;;
46835;SDS011;32573;51.290;6.926;2023-10-13T01:00:08;4.60;;;2.28;;
46835;SDS011;32573;51.290;6.926;2023-10-13T01:02:47;5.00;;;2.33;;
46835;SDS011;32573;51.290;6.926;2023-10-13T01:05:24;5.35;;;2.22;;
46835;SDS011;32573;51.290;6.926;2023-10-13T01:07:54;4.93;;;2.60;;
46835;SDS011;32573;51.290;6.926;2023-10-13T01:10:22;6.50;;;2.65;;
46835;SDS011;32573;51.290;6.926;2023-10-13T01:12:56;5.45;;;2.28;;
46835;SDS011;32573;51.290;6.926;2023-10-13T01:15:26;4.53;;;2.25;;
46835;SDS011;32573;51.290;6.926;2023-10-13T01:18:06;4.65;;;2.25;;
46835;SDS011;32573;51.290;6.926;2023-10-13T01:20:40;5.22;;;2.10;;
46835;SDS011;32573;51.290;6.926;2023-10-13T01:23:14;4.22;;;2.40;;
46835;SDS011;32573;51.290;6.926;2023-10-13T01:25:46;4.80;;;2.50;;
46835;SDS011;32573;51.290;6.926;2023-10-13T01:28:16;5.13;;;2.20;;
46835;SDS011;32573;51.290;6.926;2023-10-13T01:30:44;5.15;;;2.40;;
46835;SDS011;32573;51.290;6.926;2023-10-13T01:33:17;4.45;;;2.45;;
46835;SDS011;32573;51.290;6.926;2023-10-13T01:35:54;4.10;;;2.08;;
46835;SDS011;32573;51.290;6.926;2023-10-13T01:38:27;5.60;;;2.28;;
46835;SDS011;32573;51.290;6.926;2023-10-13T01:40:56;5.93;;;2.38;;
46835;SDS011;32573;51.290;6.926;2023-10-13T01:43:26;4.55;;;2.40;;
46835;SDS011;32573;51.290;6.926;2023-10-13T01:45:54;4.97;;;2.40;;
46835;SDS011;32573;51.290;6.926;2023-10-13T01:48:23;6.00;;;2.53;;
46835;SDS011;32573;51.290;6.926;2023-10-13T01:50:51;4.78;;;2.20;;
46835;SDS011;32573;51.290;6.926;2023-10-13T01:53:28;5.05;;;2.42;;
46835;SDS011;32573;51.290;6.926;2023-10-13T01:55:57;4.72;;;2.13;;
46835;SDS011;32573;51.290;6.926;2023-10-13T01:58:27;4.82;;;2.22;;
46835;SDS011;32573;51.290;6.926;2023-10-13T02:00:56;5.15;;;2.28;;
46835;SDS011;32573;51.290;6.926;2023-10-13T02:03:27;4.03;;;2.00;;
46835;SDS011;32573;51.290;6.926;2023-10-13T02:05:57;4.55;;;2.33;;
46835;SDS011;32573;51.290;6.926;2023-10-13T02:08:33;5.00;;;2.17;;
46835;SDS011;32573;51.290;6.926;2023-10-13T02:11:07;5.03;;;2.13;;
46835;SDS011;32573;51.290;6.926;2023-10-13T02:13:37;4.30;;;2.13;;
46835;SDS011;32573;51.290;6.926;2023-10-13T02:16:15;4.50;;;2.30;;
46835;SDS011;32573;51.290;6.926;2023-10-13T02:18:49;5.03;;;2.42;;
46835;SDS011;32573;51.290;6.926;2023-10-13T02:21:19;4.75;;;2.60;;
46835;SDS011;32573;51.290;6.926;2023-10-13T02:23:50;5.18;;;2.40;;
46835;SDS011;32573;51.290;6.926;2023-10-13T02:26:29;3.83;;;2.20;;
46835;SDS011;32573;51.290;6.926;2023-10-13T02:29:06;5.32;;;2.30;;
46835;SDS011;32573;51.290;6.926;2023-10-13T02:31:35;5.03;;;2.50;;
46835;SDS011;32573;51.290;6.926;2023-10-13T02:34:05;4.82;;;2.22;;
46835;SDS011;32573;51.290;6.926;2023-10-13T02:36:35;5.40;;;2.50;;
46835;SDS011;32573;51.290;6.926;2023-10-13T02:39:12;6.15;;;2.60;;
46835;SDS011;32573;51.290;6.926;2023-10-13T02:41:41;4.97;;;2.35;;
46835;SDS011;32573;51.290;6.926;2023-10-13T02:44:15;7.25;;;2.78;;
46835;SDS011;32573;51.290;6.926;2023-10-13T02:46:54;5.35;;;2.50;;
46835;SDS011;32573;51.290;6.926;2023-10-13T02:49:25;5.18;;;2.80;;
46835;SDS011;32573;51.290;6.926;2023-10-13T02:51:54;5.05;;;2.50;;
46835;SDS011;32573;51.290;6.926;2023-10-13T02:54:27;5.63;;;2.42;;
46835;SDS011;32573;51.290;6.926;2023-10-13T02:56:58;4.50;;;2.60;;
46835;SDS011;32573;51.290;6.926;2023-10-13T02:59:31;5.53;;;2.83;;
46835;SDS011;32573;51.290;6.926;2023-10-13T03:02:08;5.28;;;2.80;;
46835;SDS011;32573;51.290;6.926;2023-10-13T03:04:51;4.95;;;2.63;;
46835;SDS011;32573;51.290;6.926;2023-10-13T03:07:27;5.53;;;2.65;;
46835;SDS011;32573;51.290;6.926;2023-10-13T03:09:58;4.82;;;2.70;;
46835;SDS011;32573;51.290;6.926;2023-10-13T03:12:28;4.82;;;2.53;;
46835;SDS011;32573;51.290;6.926;2023-10-13T03:15:01;5.43;;;2.53;;
46835;SDS011;32573;51.290;6.926;2023-10-13T03:17:40;4.97;;;2.60;;
46835;SDS011;32573;51.290;6.926;2023-10-13T03:20:12;4.88;;;2.70;;
46835;SDS011;32573;51.290;6.926;2023-10-13T03:22:43;5.43;;;2.38;;
46835;SDS011;32573;51.290;6.926;2023-10-13T03:25:14;4.68;;;2.38;;
46835;SDS011;32573;51.290;6.926;2023-10-13T03:27:51;5.70;;;2.45;;
46835;SDS011;32573;51.290;6.926;2023-10-13T03:30:32;5.32;;;2.75;;
46835;SDS011;32573;51.290;6.926;2023-10-13T03:33:06;6.35;;;2.80;;
46835;SDS011;32573;51.290;6.926;2023-10-13T03:35:40;5.30;;;2.80;;
46835;SDS011;32573;51.290;6.926;2023-10-13T03:38:13;7.18;;;3.28;;
46835;SDS011;32573;51.290;6.926;2023-10-13T03:40:49;6.22;;;3.30;;
46835;SDS011;32573;51.290;6.926;2023-10-13T03:43:35;5.28;;;2.60;;
46835;SDS011;32573;51.290;6.926;2023-10-13T03:46:13;6.65;;;2.95;;
46835;SDS011;32573;51.290;6.926;2023-10-13T03:48:42;4.85;;;2.63;;
46835;SDS011;32573;51.290;6.926;2023-10-13T03:51:21;5.63;;;2.92;;
46835;SDS011;32573;51.290;6.926;2023-10-13T03:53:58;6.00;;;2.95;;
46835;SDS011;32573;51.290;6.926;2023-10-13T03:56:36;5.50;;;2.90;;
46835;SDS011;32573;51.290;6.926;2023-10-13T03:59:09;4.93;;;2.60;;
46835;SDS011;32573;51.290;6.926;2023-10-13T04:01:48;5.80;;;3.10;;
46835;SDS011;32573;51.290;6.926;2023-10-13T04:04:27;5.10;;;2.60;;
46835;SDS011;32573;51.290;6.926;2023-10-13T04:07:09;5.78;;;2.95;;
46835;SDS011;32573;51.290;6.926;2023-10-13T04:10:02;5.07;;;2.60;;
46835;SDS011;32573;51.290;6.926;2023-10-13T04:12:51;6.00;;;3.05;;
46835;SDS011;32573;51.290;6.926;2023-10-13T04:15:38;5.53;;;3.00;;
46835;SDS011;32573;51.290;6.926;2023-10-13T04:18:28;5.32;;;2.58;;
46835;SDS011;32573;51.290;6.926;2023-10-13T04:21:31;5.68;;;2.60;;
46835;SDS011;32573;51.290;6.926;2023-10-13T04:24:22;5.32;;;2.83;;
46835;SDS011;32573;51.290;6.926;2023-10-13T04:27:07;6.32;;;3.10;;
46835;SDS011;32573;51.290;6.926;2023-10-13T04:30:09;6.57;;;2.90;;
46835;SDS011;32573;51.290;6.926;2023-10-13T04:32:38;6.43;;;2.90;;
46835;SDS011;32573;51.290;6.926;2023-10-13T04:35:13;7.85;;;3.13;;
46835;SDS011;32573;51.290;6.926;2023-10-13T04:37:45;6.80;;;3.45;;
46835;SDS011;32573;51.290;6.926;2023-10-13T04:40:25;5.90;;;2.65;;
46835;SDS011;32573;51.290;6.926;2023-10-13T04:42:54;6.38;;;3.08;;
46835;SDS011;32573;51.290;6.926;2023-10-13T04:45:26;5.43;;;2.92;;
46835;SDS011;32573;51.290;6.926;2023-10-13T04:48:06;4.95;;;2.90;;
46835;SDS011;32573;51.290;6.926;2023-10-13T04:50:46;5.25;;;2.53;;
46835;SDS011;32573;51.290;6.926;2023-10-13T04:53:18;5.88;;;2.55;;
46835;SDS011;32573;51.290;6.926;2023-10-13T04:56:00;5.20;;;2.70;;
46835;SDS011;32573;51.290;6.926;2023-10-13T04:58:55;5.38;;;2.83;;
46835;SDS011;32573;51.290;6.926;2023-10-13T05:01:43;5.22;;;2.60;;
46835;SDS011;32573;51.290;6.926;2023-10-13T05:04:50;5.82;;;3.08;;
46835;SDS011;32573;51.290;6.926;2023-10-13T05:07:37;5.53;;;2.80;;
46835;SDS011;32573;51.290;6.926;2023-10-13T05:10:23;6.20;;;2.97;;
46835;SDS011;32573;51.290;6.926;2023-10-13T05:13:10;5.68;;;2.78;;
46835;SDS011;32573;51.290;6.926;2023-10-13T05:15:55;5.07;;;2.58;;
46835;SDS011;32573;51.290;6.926;2023-10-13T05:18:44;5.63;;;2.80;;
46835;SDS011;32573;51.290;6.926;2023-10-13T05:21:30;7.35;;;3.00;;
46835;SDS011;32573;51.290;6.926;2023-10-13T05:24:17;7.65;;;3.15;;
46835;SDS011;32573;51.290;6.926;2023-10-13T05:27:08;5.40;;;2.85;;
46835;SDS011;32573;51.290;6.926;2023-10-13T05:29:55;6.50;;;3.15;;
46835;SDS011;32573;51.290;6.926;2023-10-13T05:32:41;6.53;;;3.00;;
46835;SDS011;32573;51.290;6.926;2023-10-13T05:35:31;5.88;;;2.90;;
46835;SDS011;32573;51.290;6.926;2023-10-13T05:38:18;6.03;;;2.97;;
46835;SDS011;32573;51.290;6.926;2023-10-13T05:41:05;5.60;;;2.97;;
46835;SDS011;32573;51.290;6.926;2023-10-13T05:43:52;6.75;;;3.15;;
46835;SDS011;32573;51.290;6.926;2023-10-13T05:46:39;7.65;;;3.20;;
46835;SDS011;32573;51.290;6.926;2023-10-13T05:49:31;6.30;;;3.00;;
46835;SDS011;32573;51.290;6.926;2023-10-13T05:52:18;4.88;;;2.60;;
46835;SDS011;32573;51.290;6.926;2023-10-13T05:55:08;6.25;;;2.83;;
46835;SDS011;32573;51.290;6.926;2023-10-13T05:57:54;5.47;;;2.95;;
46835;SDS011;32573;51.290;6.926;2023-10-13T06:00:41;4.78;;;2.58;;
46835;SDS011;32573;51.290;6.926;2023-10-13T06:03:27;6.32;;;3.15;;
46835;SDS011;32573;51.290;6.926;2023-10-13T06:06:13;6.15;;;2.53;;
46835;SDS011;32573;51.290;6.926;2023-10-13T06:09:00;6.05;;;2.80;;
46835;SDS011;32573;51.290;6.926;2023-10-13T06:11:47;6.43;;;2.65;;
46835;SDS011;32573;51.290;6.926;2023-10-13T06:14:35;6.28;;;2.80;;
46835;SDS011;32573;51.290;6.926;2023-10-13T06:17:21;6.72;;;3.10;;
46835;SDS011;32573;51.290;6.926;2023-10-13T06:20:08;9.20;;;3.50;;
46835;SDS011;32573;51.290;6.926;2023-10-13T06:22:54;5.47;;;3.00;;
46835;SDS011;32573;51.290;6.926;2023-10-13T06:25:42;5.90;;;2.97;;
46835;SDS011;32573;51.290;6.926;2023-10-13T06:28:28;5.65;;;2.92;;
46835;SDS011;32573;51.290;6.926;2023-10-13T06:31:09;5.50;;;2.60;;
46835;SDS011;32573;51.290;6.926;2023-10-13T06:33:42;4.65;;;2.50;;
46835;SDS011;32573;51.290;6.926;2023-10-13T06:36:12;5.60;;;3.20;;
46835;SDS011;32573;51.290;6.926;2023-10-13T06:38:41;5.70;;;2.88;;
46835;SDS011;32573;51.290;6.926;2023-10-13T06:41:11;6.15;;;3.20;;
46835;SDS011;32573;51.290;6.926;2023-10-13T06:43:47;5.85;;;2.78;;
46835;SDS011;32573;51.290;6.926;2023-10-13T06:46:27;5.38;;;2.90;;
46835;SDS011;32573;51.290;6.926;2023-10-13T06:48:56;5.82;;;2.60;;
46835;SDS011;32573;51.290;6.926;2023-10-13T06:51:27;5.97;;;2.65;;
46835;SDS011;32573;51.290;6.926;2023-10-13T06:54:05;6.03;;;2.50;;
46835;SDS011;32573;51.290;6.926;2023-10-13T06:56:40;5.18;;;2.78;;
46835;SDS011;32573;51.290;6.926;2023-10-13T06:59:08;4.55;;;2.30;;
46835;SDS011;32573;51.290;6.926;2023-10-13T07:01:37;6.20;;;2.58;;
46835;SDS011;32573;51.290;6.926;2023-10-13T07:04:08;4.53;;;2.35;;
46835;SDS011;32573;51.290;6.926;2023-10-13T07:06:42;5.83;;;2.73;;
46835;SDS011;32573;51.290;6.926;2023-10-13T07:09:15;4.57;;;2.47;;
46835;SDS011;32573;51.290;6.926;2023-10-13T07:12:08;6.07;;;2.70;;
46835;SDS011;32573;51.290;6.926;2023-10-13T07:14:47;6.07;;;2.60;;
46835;SDS011;32573;51.290;6.926;2023-10-13T07:17:19;5.45;;;2.88;;
46835;SDS011;32573;51.290;6.926;2023-10-13T07:19:52;5.45;;;2.88;;
46835;SDS011;32573;51.290;6.926;2023-10-13T07:22:22;5.15;;;2.50;;
46835;SDS011;32573;51.290;6.926;2023-10-13T07:24:53;6.35;;;2.72;;
46835;SDS011;32573;51.290;6.926;2023-10-13T07:27:26;5.22;;;2.65;;
46835;SDS011;32573;51.290;6.926;2023-10-13T07:29:55;5.20;;;2.60;;
46835;SDS011;32573;51.290;6.926;2023-10-13T07:32:33;4.78;;;2.40;;
46835;SDS011;32573;51.290;6.926;2023-10-13T07:35:03;6.35;;;2.60;;
46835;SDS011;32573;51.290;6.926;2023-10-13T07:37:37;5.55;;;2.67;;
46835;SDS011;32573;51.290;6.926;2023-10-13T07:40:08;6.57;;;2.58;;
46835;SDS011;32573;51.290;6.926;2023-10-13T07:42:56;5.05;;;2.22;;
46835;SDS011;32573;51.290;6.926;2023-10-13T07:45:27;5.15;;;2.60;;
46835;SDS011;32573;51.290;6.926;2023-10-13T07:48:04;6.00;;;2.47;;
46835;SDS011;32573;51.290;6.926;2023-10-13T07:50:39;5.25;;;2.80;;
46835;SDS011;32573;51.290;6.926;2023-10-13T07:53:08;4.63;;;2.42;;
46835;SDS011;32573;51.290;6.926;2023-10-13T07:55:50;5.55;;;2.70;;
46835;SDS011;32573;51.290;6.926;2023-10-13T07:58:25;4.65;;;2.30;;
46835;SDS011;32573;51.290;6.926;2023-10-13T08:00:53;6.25;;;2.70;;
46835;SDS011;32573;51.290;6.926;2023-10-13T08:03:34;8.75;;;3.33;;
46835;SDS011;32573;51.290;6.926;2023-10-13T08:06:12;4.95;;;2.55;;
46835;SDS011;32573;51.290;6.926;2023-10-13T08:08:48;6.57;;;2.92;;
46835;SDS011;32573;51.290;6.926;2023-10-13T08:11:22;6.55;;;2.70;;
46835;SDS011;32573;51.290;6.926;2023-10-13T08:13:56;5.57;;;2.67;;
46835;SDS011;32573;51.290;6.926;2023-10-13T08:16:41;5.80;;;3.03;;
46835;SDS011;32573;51.290;6.926;2023-10-13T08:19:17;6.15;;;2.78;;
46835;SDS011;32573;51.290;6.926;2023-10-13T08:21:48;7.88;;;2.88;;
46835;SDS011;32573;51.290;6.926;2023-10-13T08:24:21;6.35;;;3.28;;
46835;SDS011;32573;51.290;6.926;2023-10-13T08:26:56;6.03;;;2.90;;
46835;SDS011;32573;51.290;6.926;2023-10-13T08:29:27;5.90;;;3.10;;
46835;SDS011;32573;51.290;6.926;2023-10-13T08:32:15;5.30;;;2.97;;
46835;SDS011;32573;51.290;6.926;2023-10-13T08:35:03;7.13;;;2.95;;
46835;SDS011;32573;51.290;6.926;2023-10-13T08:37:50;6.22;;;2.75;;
46835;SDS011;32573;51.290;6.926;2023-10-13T08:40:49;6.80;;;3.28;;
46835;SDS011;32573;51.290;6.926;2023-10-13T08:43:40;9.10;;;3.00;;
46835;SDS011;32573;51.290;6.926;2023-10-13T08:46:20;4.88;;;2.85;;
46835;SDS011;32573;51.290;6.926;2023-10-13T08:48:59;6.05;;;2.80;;
46835;SDS011;32573;51.290;6.926;2023-10-13T08:51:49;7.75;;;2.60;;
46835;SDS011;32573;51.290;6.926;2023-10-13T08:54:33;7.50;;;3.10;;
46835;SDS011;32573;51.290;6.926;2023-10-13T08:57:14;7.20;;;2.90;;
46835;SDS011;32573;51.290;6.926;2023-10-13T09:00:00;5.75;;;2.80;;
46835;SDS011;32573;51.290;6.926;2023-10-13T09:02:49;7.15;;;2.92;;
46835;SDS011;32573;51.290;6.926;2023-10-13T09:05:48;6.40;;;2.83;;
46835;SDS011;32573;51.290;6.926;2023-10-13T09:08:29;7.75;;;3.97;;
46835;SDS011;32573;51.290;6.926;2023-10-13T09:11:11;5.50;;;2.60;;
46835;SDS011;32573;51.290;6.926;2023-10-13T09:13:42;6.18;;;2.58;;
46835;SDS011;32573;51.290;6.926;2023-10-13T09:16:15;5.38;;;2.85;;
46835;SDS011;32573;51.290;6.926;2023-10-13T09:18:51;5.82;;;2.80;;
46835;SDS011;32573;51.290;6.926;2023-10-13T09:21:21;6.68;;;2.90;;
46835;SDS011;32573;51.290;6.926;2023-10-13T09:24:11;5.85;;;2.55;;
46835;SDS011;32573;51.290;6.926;2023-10-13T09:26:51;6.28;;;2.70;;
46835;SDS011;32573;51.290;6.926;2023-10-13T09:29:25;8.43;;;2.83;;
46835;SDS011;32573;51.290;6.926;2023-10-13T09:32:01;6.00;;;2.65;;
46835;SDS011;32573;51.290;6.926;2023-10-13T09:34:35;6.45;;;3.15;;
46835;SDS011;32573;51.290;6.926;2023-10-13T09:37:08;6.80;;;2.78;;
46835;SDS011;32573;51.290;6.926;2023-10-13T09:39:40;7.10;;;2.60;;
46835;SDS011;32573;51.290;6.926;2023-10-13T09:42:17;7.05;;;3.05;;
46835;SDS011;32573;51.290;6.926;2023-10-13T09:44:46;7.90;;;3.03;;
46835;SDS011;32573;51.290;6.926;2023-10-13T09:47:23;6.30;;;2.78;;
46835;SDS011;32573;51.290;6.926;2023-10-13T09:50:01;6.82;;;2.85;;
46835;SDS011;32573;51.290;6.926;2023-10-13T09:52:43;5.25;;;2.60;;
46835;SDS011;32573;51.290;6.926;2023-10-13T09:55:17;6.43;;;2.90;;
46835;SDS011;32573;51.290;6.926;2023-10-13T09:57:58;5.10;;;2.65;;
46835;SDS011;32573;51.290;6.926;2023-10-13T10:00:40;6.85;;;2.85;;
46835;SDS011;32573;51.290;6.926;2023-10-13T10:03:25;5.22;;;2.72;;
46835;SDS011;32573;51.290;6.926;2023-10-13T10:06:11;8.52;;;3.33;;
46835;SDS011;32573;51.290;6.926;2023-10-13T10:09:05;6.10;;;2.50;;
46835;SDS011;32573;51.290;6.926;2023-10-13T10:15:06;4.85;;;2.80;;
46835;SDS011;32573;51.290;6.926;2023-10-13T10:17:41;6.25;;;2.90;;
46835;SDS011;32573;51.290;6.926;2023-10-13T10:20:13;5.35;;;2.67;;
46835;SDS011;32573;51.290;6.926;2023-10-13T10:22:59;6.65;;;2.90;;
46835;SDS011;32573;51.290;6.926;2023-10-13T10:25:29;4.88;;;2.58;;
46835;SDS011;32573;51.290;6.926;2023-10-13T10:28:03;5.10;;;2.70;;
46835;SDS011;32573;51.290;6.926;2023-10-13T10:30:35;5.38;;;2.85;;
46835;SDS011;32573;51.290;6.926;2023-10-13T10:33:10;5.88;;;2.80;;
46835;SDS011;32573;51.290;6.926;2023-10-13T10:35:42;6.65;;;2.67;;
46835;SDS011;32573;51.290;6.926;2023-10-13T10:38:16;6.00;;;2.83;;
46835;SDS011;32573;51.290;6.926;2023-10-13T10:41:01;6.85;;;2.75;;
46835;SDS011;32573;51.290;6.926;2023-10-13T10:43:36;5.55;;;2.97;;
46835;SDS011;32573;51.290;6.926;2023-10-13T10:46:14;8.13;;;2.97;;
46835;SDS011;32573;51.290;6.926;2023-10-13T10:48:45;4.95;;;2.47;;
46835;SDS011;32573;51.290;6.926;2023-10-13T10:51:15;5.45;;;2.67;;
46835;SDS011;32573;51.290;6.926;2023-10-13T10:53:54;6.60;;;3.05;;
46835;SDS011;32573;51.290;6.926;2023-10-13T10:56:25;5.57;;;2.80;;
46835;SDS011;32573;51.290;6.926;2023-10-13T10:59:05;8.48;;;3.00;;
46835;SDS011;32573;51.290;6.926;2023-10-13T11:01:46;5.60;;;2.70;;
46835;SDS011;32573;51.290;6.926;2023-10-13T11:04:19;6.10;;;3.00;;
46835;SDS011;32573;51.290;6.926;2023-10-13T11:07:01;5.50;;;2.80;;
46835;SDS011;32573;51.290;6.926;2023-10-13T11:09:36;5.68;;;2.80;;
46835;SDS011;32573;51.290;6.926;2023-10-13T11:12:13;5.97;;;3.15;;
46835;SDS011;32573;51.290;6.926;2023-10-13T11:14:44;6.43;;;3.17;;
46835;SDS011;32573;51.290;6.926;2023-10-13T11:17:19;5.40;;;3.15;;
46835;SDS011;32573;51.290;6.926;2023-10-13T11:19:53;6.75;;;3.03;;
46835;SDS011;32573;51.290;6.926;2023-10-13T11:22:23;5.75;;;2.83;;
46835;SDS011;32573;51.290;6.926;2023-10-13T11:25:03;6.80;;;2.88;;
46835;SDS011;32573;51.290;6.926;2023-10-13T11:27:38;6.63;;;3.05;;
46835;SDS011;32573;51.290;6.926;2023-10-13T11:30:26;6.53;;;3.03;;
46835;SDS011;32573;51.290;6.926;2023-10-13T11:33:10;5.28;;;2.85;;
46835;SDS011;32573;51.290;6.926;2023-10-13T11:35:46;5.47;;;2.70;;
46835;SDS011;32573;51.290;6.926;2023-10-13T11:38:26;4.47;;;2.60;;
46835;SDS011;32573;51.290;6.926;2023-10-13T11:40:59;6.80;;;3.38;;
46835;SDS011;32573;51.290;6.926;2023-10-13T11:43:40;5.65;;;2.88;;
46835;SDS011;32573;51.290;6.926;2023-10-13T11:46:29;7.20;;;2.50;;
46835;SDS011;32573;51.290;6.926;2023-10-13T11:49:23;6.40;;;2.78;;
46835;SDS011;32573;51.290;6.926;2023-10-13T11:52:05;6.15;;;3.10;;
46835;SDS011;32573;51.290;6.926;2023-10-13T11:54:46;6.65;;;2.83;;
46835;SDS011;32573;51.290;6.926;2023-10-13T11:57:17;6.97;;;2.33;;
46835;SDS011;32573;51.290;6.926;2023-10-13T11:59:47;5.60;;;2.65;;
46835;SDS011;32573;51.290;6.926;2023-10-13T12:02:44;5.75;;;2.60;;
46835;SDS011;32573;51.290;6.926;2023-10-13T12:05:31;5.95;;;2.50;;
46835;SDS011;32573;51.290;6.926;2023-10-13T12:08:16;6.28;;;2.80;;
46835;SDS011;32573;51.290;6.926;2023-10-13T12:11:00;7.30;;;2.42;;
46835;SDS011;32573;51.290;6.926;2023-10-13T12:13:51;6.53;;;2.65;;
46835;SDS011;32573;51.290;6.926;2023-10-13T12:16:21;6.18;;;2.72;;
46835;SDS011;32573;51.290;6.926;2023-10-13T12:18:50;6.78;;;2.55;;
46835;SDS011;32573;51.290;6.926;2023-10-13T12:21:21;6.75;;;2.42;;
46835;SDS011;32573;51.290;6.926;2023-10-13T12:23:50;7.70;;;2.53;;
46835;SDS011;32573;51.290;6.926;2023-10-13T12:26:21;5.47;;;2.30;;
46835;SDS011;32573;51.290;6.926;2023-10-13T12:29:00;6.97;;;2.90;;
46835;SDS011;32573;51.290;6.926;2023-10-13T12:31:34;6.82;;;2.58;;
46835;SDS011;32573;51.290;6.926;2023-10-13T12:34:06;5.43;;;2.03;;
46835;SDS011;32573;51.290;6.926;2023-10-13T12:36:46;7.47;;;2.45;;
46835;SDS011;32573;51.290;6.926;2023-10-13T12:39:33;5.55;;;2.25;;
46835;SDS011;32573;51.290;6.926;2023-10-13T12:42:19;6.88;;;2.15;;
46835;SDS011;32573;51.290;6.926;2023-10-13T12:45:12;5.80;;;2.22;;
46835;SDS011;32573;51.290;6.926;2023-10-13T12:47:59;5.95;;;2.30;;
46835;SDS011;32573;51.290;6.926;2023-10-13T12:50:45;5.35;;;2.33;;
46835;SDS011;32573;51.290;6.926;2023-10-13T12:53:34;5.55;;;2.17;;
46835;SDS011;32573;51.290;6.926;2023-10-13T12:56:03;6.43;;;2.10;;
46835;SDS011;32573;51.290;6.926;2023-10-13T12:58:32;7.30;;;2.40;;
46835;SDS011;32573;51.290;6.926;2023-10-13T13:01:02;6.75;;;2.55;;
46835;SDS011;32573;51.290;6.926;2023-10-13T13:03:34;6.68;;;2.28;;
46835;SDS011;32573;51.290;6.926;2023-10-13T13:06:03;6.68;;;2.08;;
46835;SDS011;32573;51.290;6.926;2023-10-13T13:08:34;6.28;;;2.20;;
46835;SDS011;32573;51.290;6.926;2023-10-13T13:11:12;6.32;;;2.50;;
46835;SDS011;32573;51.290;6.926;2023-10-13T13:13:41;5.55;;;2.20;;
46835;SDS011;32573;51.290;6.926;2023-10-13T13:16:15;5.72;;;2.60;;
46835;SDS011;32573;51.290;6.926;2023-10-13T13:18:46;5.72;;;2.17;;
46835;SDS011;32573;51.290;6.926;2023-10-13T13:21:15;5.22;;;2.17;;
46835;SDS011;32573;51.290;6.926;2023-10-13T13:23:49;5.95;;;2.15;;
46835;SDS011;32573;51.290;6.926;2023-10-13T13:26:19;5.60;;;2.40;;
46835;SDS011;32573;51.290;6.926;2023-10-13T13:28:49;4.80;;;2.20;;
46835;SDS011;32573;51.290;6.926;2023-10-13T13:31:20;5.03;;;2.05;;
46835;SDS011;32573;51.290;6.926;2023-10-13T13:33:53;5.20;;;2.10;;
46835;SDS011;32573;51.290;6.926;2023-10-13T13:36:22;6.00;;;2.30;;
46835;SDS011;32573;51.290;6.926;2023-10-13T13:38:52;4.65;;;2.30;;
46835;SDS011;32573;51.290;6.926;2023-10-13T13:41:28;7.28;;;2.38;;
46835;SDS011;32573;51.290;6.926;2023-10-13T13:43:59;6.97;;;2.20;;
46835;SDS011;32573;51.290;6.926;2023-10-13T13:46:42;6.70;;;2.15;;
46835;SDS011;32573;51.290;6.926;2023-10-13T13:49:11;5.68;;;2.00;;
46835;SDS011;32573;51.290;6.926;2023-10-13T13:51:46;7.38;;;3.00;;
46835;SDS011;32573;51.290;6.926;2023-10-13T13:54:19;6.82;;;2.60;;
46835;SDS011;32573;51.290;6.926;2023-10-13T13:56:48;5.55;;;2.28;;
46835;SDS011;32573;51.290;6.926;2023-10-13T13:59:17;6.60;;;2.35;;
46835;SDS011;32573;51.290;6.926;2023-10-13T14:01:49;5.25;;;2.53;;
46835;SDS011;32573;51.290;6.926;2023-10-13T14:04:20;5.72;;;2.42;;
46835;SDS011;32573;51.290;6.926;2023-10-13T14:06:51;6.18;;;2.38;;
46835;SDS011;32573;51.290;6.926;2023-10-13T14:09:20;4.57;;;2.00;;
46835;SDS011;32573;51.290;6.926;2023-10-13T14:12:04;5.45;;;2.20;;
46835;SDS011;32573;51.290;6.926;2023-10-13T14:14:57;6.82;;;2.70;;
46835;SDS011;32573;51.290;6.926;2023-10-13T14:17:30;4.32;;;2.10;;
46835;SDS011;32573;51.290;6.926;2023-10-13T14:20:03;6.50;;;2.10;;
46835;SDS011;32573;51.290;6.926;2023-10-13T14:22:43;4.00;;;2.08;;
46835;SDS011;32573;51.290;6.926;2023-10-13T14:25:15;4.47;;;2.15;;
46835;SDS011;32573;51.290;6.926;2023-10-13T14:27:46;8.45;;;2.35;;
46835;SDS011;32573;51.290;6.926;2023-10-13T14:30:15;7.45;;;2.10;;
46835;SDS011;32573;51.290;6.926;2023-10-13T14:32:51;8.60;;;2.10;;
46835;SDS011;32573;51.290;6.926;2023-10-13T14:35:23;6.15;;;2.53;;
46835;SDS011;32573;51.290;6.926;2023-10-13T14:37:54;5.95;;;2.30;;
46835;SDS011;32573;51.290;6.926;2023-10-13T14:40:23;5.63;;;2.15;;
46835;SDS011;32573;51.290;6.926;2023-10-13T14:42:52;5.85;;;2.28;;
46835;SDS011;32573;51.290;6.926;2023-10-13T14:45:23;7.40;;;2.30;;
46835;SDS011;32573;51.290;6.926;2023-10-13T14:47:53;4.35;;;2.05;;
46835;SDS011;32573;51.290;6.926;2023-10-13T14:50:23;5.50;;;2.25;;
46835;SDS011;32573;51.290;6.926;2023-10-13T14:52:52;6.18;;;2.40;;
46835;SDS011;32573;51.290;6.926;2023-10-13T14:55:25;5.93;;;2.10;;
46835;SDS011;32573;51.290;6.926;2023-10-13T14:58:06;5.32;;;2.08;;
46835;SDS011;32573;51.290;6.926;2023-10-13T15:00:36;6.82;;;2.40;;
46835;SDS011;32573;51.290;6.926;2023-10-13T15:03:07;4.90;;;2.05;;
46835;SDS011;32573;51.290;6.926;2023-10-13T15:05:37;5.97;;;2.35;;
46835;SDS011;32573;51.290;6.926;2023-10-13T15:08:06;5.43;;;2.13;;
46835;SDS011;32573;51.290;6.926;2023-10-13T15:10:35;6.13;;;2.22;;
46835;SDS011;32573;51.290;6.926;2023-10-13T15:13:04;5.93;;;2.10;;
46835;SDS011;32573;51.290;6.926;2023-10-13T15:15:33;5.03;;;2.28;;
46835;SDS011;32573;51.290;6.926;2023-10-13T15:18:03;7.30;;;2.03;;
46835;SDS011;32573;51.290;6.926;2023-10-13T15:20:40;6.13;;;2.25;;
46835;SDS011;32573;51.290;6.926;2023-10-13T15:23:11;5.38;;;2.28;;
46835;SDS011;32573;51.290;6.926;2023-10-13T15:25:42;4.20;;;1.80;;
46835;SDS011;32573;51.290;6.926;2023-10-13T15:28:17;6.50;;;2.30;;
46835;SDS011;32573;51.290;6.926;2023-10-13T15:30:48;5.68;;;2.80;;
46835;SDS011;32573;51.290;6.926;2023-10-13T15:33:24;6.72;;;2.13;;
46835;SDS011;32573;51.290;6.926;2023-10-13T15:35:54;4.88;;;2.15;;
46835;SDS011;32573;51.290;6.926;2023-10-13T15:38:25;5.30;;;2.08;;
46835;SDS011;32573;51.290;6.926;2023-10-13T15:40:58;4.43;;;1.80;;
46835;SDS011;32573;51.290;6.926;2023-10-13T15:43:31;8.80;;;2.42;;
46835;SDS011;32573;51.290;6.926;2023-10-13T15:45:59;4.88;;;1.98;;
46835;SDS011;32573;51.290;6.926;2023-10-13T15:48:54;4.03;;;1.80;;
46835;SDS011;32573;51.290;6.926;2023-10-13T15:51:42;4.50;;;2.03;;